createdAt,value
2022-12-23T00:00:19.989Z,11.75
2022-12-23T00:02:56.183Z,11.82
2022-12-23T00:05:22.875Z,10.40
2022-12-23T00:07:55.321Z,10.95
2022-12-23T00:10:22.648Z,11.27
2022-12-23T00:13:08.230Z,12.20
2022-12-23T00:15:34.713Z,12.23
2022-12-23T00:18:01.263Z,12.15
2022-12-23T00:20:34.382Z,10.15
2022-12-23T00:23:07.480Z,9.80
2022-12-23T00:25:44.463Z,10.18
2022-12-23T00:28:15.000Z,9.35
2022-12-23T00:30:56.354Z,7.90
2022-12-23T00:33:25.676Z,8.23
2022-12-23T00:35:53.109Z,7.85
2022-12-23T00:38:39.606Z,7.95
2022-12-23T00:41:29.341Z,10.80
2022-12-23T00:43:58.399Z,7.95
2022-12-23T00:46:25.607Z,9.05
2022-12-23T00:49:11.142Z,10.32
2022-12-23T00:51:37.563Z,8.68
2022-12-23T00:54:06.797Z,9.25
2022-12-23T00:56:33.813Z,10.23
2022-12-23T00:59:00.545Z,10.02
2022-12-23T01:01:45.967Z,8.82
2022-12-23T01:04:32.735Z,10.20
2022-12-23T01:07:03.387Z,8.10
2022-12-23T01:09:29.837Z,9.32
2022-12-23T01:11:57.338Z,8.80
2022-12-23T01:14:24.356Z,9.75
2022-12-23T01:16:50.891Z,9.88
2022-12-23T01:19:17.461Z,10.07
2022-12-23T01:21:44.036Z,8.23
2022-12-23T01:24:10.531Z,10.13
2022-12-23T01:26:37.010Z,9.15
2022-12-23T01:29:03.417Z,8.90
2022-12-23T01:31:30.203Z,9.60
2022-12-23T01:33:56.959Z,8.45
2022-12-23T01:36:23.806Z,9.80
2022-12-23T01:38:50.283Z,10.43
2022-12-23T01:41:39.598Z,9.48
2022-12-23T01:44:43.573Z,9.93
2022-12-23T01:47:14.728Z,9.52
2022-12-23T01:49:42.682Z,7.85
2022-12-23T01:52:10.806Z,9.75
2022-12-23T01:54:37.845Z,10.98
2022-12-23T01:57:04.524Z,10.25
2022-12-23T01:59:49.597Z,9.43
2022-12-23T02:02:34.509Z,9.55
2022-12-23T02:05:02.033Z,9.98
2022-12-23T02:07:47.631Z,8.95
2022-12-23T02:10:15.984Z,8.70
2022-12-23T02:12:52.957Z,8.90
2022-12-23T02:15:57.319Z,8.88
2022-12-23T02:18:29.442Z,9.55
2022-12-23T02:23:34.488Z,8.55
2022-12-23T02:26:20.573Z,9.93
2022-12-23T02:28:46.896Z,9.05
2022-12-23T02:31:29.277Z,9.00
2022-12-23T02:34:07.995Z,8.77
2022-12-23T02:36:34.382Z,8.63
2022-12-23T02:39:14.900Z,9.48
2022-12-23T02:41:55.240Z,9.40
2022-12-23T02:44:35.159Z,8.45
2022-12-23T02:47:10.231Z,8.18
2022-12-23T02:49:41.446Z,8.82
2022-12-23T02:52:13.997Z,8.77
2022-12-23T02:54:46.973Z,7.80
2022-12-23T02:57:17.126Z,8.52
2022-12-23T02:59:53.938Z,8.27
2022-12-23T03:02:20.528Z,7.70
2022-12-23T03:04:47.041Z,7.70
2022-12-23T03:07:39.683Z,8.13
2022-12-23T03:10:26.200Z,7.75
2022-12-23T03:13:02.663Z,8.38
2022-12-23T03:15:57.252Z,8.85
2022-12-23T03:18:29.515Z,9.32
2022-12-23T03:23:59.877Z,8.02
2022-12-23T03:26:40.479Z,8.25
2022-12-23T03:29:27.150Z,8.60
2022-12-23T03:31:57.532Z,7.53
2022-12-23T03:34:29.940Z,9.40
2022-12-23T03:37:00.674Z,8.90
2022-12-23T03:39:34.527Z,9.18
2022-12-23T03:42:10.804Z,9.02
2022-12-23T03:45:19.360Z,9.63
2022-12-23T03:47:44.515Z,9.50
2022-12-23T03:50:17.417Z,10.25
2022-12-23T03:52:46.575Z,8.93
2022-12-23T03:55:20.648Z,8.27
2022-12-23T03:57:50.982Z,9.50
2022-12-23T04:00:20.485Z,9.32
2022-12-23T04:03:02.103Z,8.70
2022-12-23T04:05:36.011Z,8.88
2022-12-23T04:08:17.310Z,7.80
2022-12-23T04:10:43.769Z,7.70
2022-12-23T04:13:10.299Z,9.07
2022-12-23T04:15:43.491Z,8.35
2022-12-23T04:18:11.004Z,8.90
2022-12-23T04:20:37.924Z,9.63
2022-12-23T04:23:04.498Z,8.40
2022-12-23T04:25:33.587Z,8.60
2022-12-23T04:28:00.102Z,9.13
2022-12-23T04:30:31.664Z,9.27
2022-12-23T04:33:01.667Z,9.25
2022-12-23T04:35:28.110Z,9.13
2022-12-23T04:37:54.537Z,8.95
2022-12-23T04:40:21.040Z,8.95
2022-12-23T04:42:47.450Z,9.05
2022-12-23T04:45:13.935Z,8.48
2022-12-23T04:47:40.767Z,9.90
2022-12-23T04:50:08.221Z,10.18
2022-12-23T04:52:34.641Z,10.18
2022-12-23T04:55:01.117Z,9.90
2022-12-23T04:57:27.643Z,9.38
2022-12-23T04:59:53.975Z,9.50
2022-12-23T05:02:20.465Z,9.18
2022-12-23T05:04:46.951Z,9.30
2022-12-23T05:07:13.288Z,8.65
2022-12-23T05:09:39.759Z,10.80
2022-12-23T05:12:06.253Z,11.00
2022-12-23T05:14:32.866Z,10.50
2022-12-23T05:17:07.167Z,9.15
2022-12-23T05:19:33.932Z,11.23
2022-12-23T05:22:00.327Z,10.50
2022-12-23T05:24:26.757Z,13.52
2022-12-23T05:26:59.647Z,14.73
2022-12-23T05:29:27.049Z,15.57
2022-12-23T05:31:53.556Z,16.58
2022-12-23T05:34:20.193Z,17.58
2022-12-23T05:36:46.623Z,17.55
2022-12-23T05:39:13.048Z,14.98
2022-12-23T05:41:39.408Z,17.05
2022-12-23T05:44:05.850Z,18.42
2022-12-23T05:46:34.316Z,17.33
2022-12-23T05:49:00.674Z,18.77
2022-12-23T05:51:27.070Z,17.58
2022-12-23T05:53:53.458Z,18.15
2022-12-23T05:56:19.858Z,12.65
2022-12-23T05:58:48.534Z,10.80
2022-12-23T06:01:14.913Z,10.13
2022-12-23T06:03:41.469Z,8.60
2022-12-23T06:06:08.237Z,7.85
2022-12-23T06:08:34.882Z,8.75
2022-12-23T06:11:07.605Z,6.80
2022-12-23T06:13:34.301Z,7.88
2022-12-23T06:16:00.965Z,5.93
2022-12-23T06:18:27.725Z,8.15
2022-12-23T06:20:54.228Z,7.60
2022-12-23T06:23:20.670Z,8.48
2022-12-23T06:25:47.034Z,6.63
2022-12-23T06:28:13.472Z,6.95
2022-12-23T06:30:39.899Z,7.72
2022-12-23T06:33:06.382Z,6.60
2022-12-23T06:35:32.729Z,7.03
2022-12-23T06:37:59.063Z,5.68
2022-12-23T06:40:26.006Z,7.03
2022-12-23T06:42:52.441Z,7.10
2022-12-23T06:45:18.793Z,7.20
2022-12-23T06:47:45.214Z,7.00
2022-12-23T06:50:11.783Z,8.18
2022-12-23T06:52:38.306Z,7.60
2022-12-23T06:55:05.401Z,7.07
2022-12-23T06:57:31.832Z,6.93
2022-12-23T06:59:58.196Z,7.55
2022-12-23T07:02:25.202Z,7.10
2022-12-23T07:04:52.060Z,7.78
2022-12-23T07:07:18.642Z,7.93
2022-12-23T07:09:45.079Z,6.55
2022-12-23T07:12:11.491Z,8.18
2022-12-23T07:14:37.859Z,8.65
2022-12-23T07:17:04.285Z,9.45
2022-12-23T07:19:31.015Z,10.52
2022-12-23T07:21:57.507Z,10.23
2022-12-23T07:24:24.081Z,10.65
2022-12-23T07:26:51.144Z,9.40
2022-12-23T07:29:17.680Z,10.27
2022-12-23T07:31:44.165Z,11.70
2022-12-23T07:34:10.617Z,10.52
2022-12-23T07:36:37.079Z,11.82
2022-12-23T07:39:08.848Z,12.10
2022-12-23T07:41:35.272Z,12.35
2022-12-23T07:44:01.892Z,12.35
2022-12-23T07:46:28.411Z,11.95
2022-12-23T07:48:55.018Z,12.18
2022-12-23T07:51:21.587Z,12.95
2022-12-23T07:53:50.226Z,13.35
2022-12-23T07:56:17.171Z,12.27
2022-12-23T07:58:43.612Z,12.13
2022-12-23T08:01:10.129Z,10.55
2022-12-23T08:03:36.762Z,12.40
2022-12-23T08:06:08.350Z,13.18
2022-12-23T08:08:35.418Z,11.43
2022-12-23T08:11:07.668Z,11.30
2022-12-23T08:13:37.062Z,11.90
2022-12-23T08:16:05.166Z,12.50
2022-12-23T08:18:34.119Z,11.98
2022-12-23T08:21:04.680Z,12.18
2022-12-23T08:23:31.944Z,11.73
2022-12-23T08:26:08.612Z,11.45
2022-12-23T08:28:36.604Z,11.50
2022-12-23T08:31:23.931Z,10.35
2022-12-23T08:33:54.089Z,11.98
2022-12-23T08:36:24.910Z,11.27
2022-12-23T08:38:53.745Z,10.85
2022-12-23T08:41:26.136Z,10.77
2022-12-23T08:43:53.004Z,11.45
2022-12-23T08:46:19.907Z,11.38
2022-12-23T08:48:49.486Z,12.25
2022-12-23T08:51:18.048Z,13.25
2022-12-23T08:53:44.770Z,12.80
2022-12-23T08:56:14.936Z,14.10
2022-12-23T08:58:45.454Z,12.63
2022-12-23T09:01:15.161Z,13.30
2022-12-23T09:03:45.007Z,11.55
2022-12-23T09:06:23.172Z,11.70
2022-12-23T09:08:53.423Z,11.52
2022-12-23T09:11:22.744Z,12.85
2022-12-23T09:13:50.159Z,12.95
2022-12-23T09:16:17.277Z,11.32
2022-12-23T09:18:44.286Z,14.10
2022-12-23T09:21:16.795Z,11.73
2022-12-23T09:23:43.344Z,13.52
2022-12-23T09:26:11.108Z,11.98
2022-12-23T09:28:37.690Z,13.38
2022-12-23T09:31:11.894Z,12.90
2022-12-23T09:33:39.941Z,15.05
2022-12-23T09:36:06.949Z,15.52
2022-12-23T09:38:33.925Z,12.90
2022-12-23T09:41:34.842Z,14.65
2022-12-23T09:44:27.468Z,14.15
2022-12-23T09:47:00.681Z,15.45
2022-12-23T09:49:28.536Z,17.83
2022-12-23T09:52:01.378Z,15.05
2022-12-23T09:54:34.029Z,17.10
2022-12-23T09:57:03.756Z,14.80
2022-12-23T09:59:42.553Z,13.77
2022-12-23T10:02:45.254Z,14.75
2022-12-23T10:05:14.992Z,17.00
2022-12-23T10:08:15.223Z,15.52
2022-12-23T10:10:52.470Z,13.85
2022-12-23T10:13:37.534Z,12.43
2022-12-23T10:16:12.639Z,14.55
2022-12-23T10:18:45.196Z,12.98
2022-12-23T10:21:25.113Z,11.48
2022-12-23T10:23:55.707Z,12.90
2022-12-23T10:26:28.199Z,15.40
2022-12-23T10:29:01.380Z,11.95
2022-12-23T10:32:02.440Z,12.40
2022-12-23T10:34:50.070Z,12.20
2022-12-23T10:37:34.387Z,13.93
2022-12-23T10:40:19.199Z,9.05
2022-12-23T10:43:09.056Z,11.38
2022-12-23T10:46:13.502Z,11.30
2022-12-23T10:49:03.535Z,9.65
2022-12-23T10:51:37.499Z,10.70
2022-12-23T10:54:15.214Z,10.93
2022-12-23T10:56:43.278Z,12.50
2022-12-23T10:59:15.497Z,10.38
2022-12-23T11:04:17.087Z,9.52
2022-12-23T11:07:10.622Z,11.18
2022-12-23T11:09:55.144Z,11.82
2022-12-23T11:12:40.482Z,12.77
2022-12-23T11:15:28.797Z,13.50
2022-12-23T11:18:14.531Z,12.52
2022-12-23T11:20:43.195Z,14.75
2022-12-23T11:23:26.110Z,15.82
2022-12-23T11:26:05.229Z,15.88
2022-12-23T11:28:34.243Z,15.35
2022-12-23T11:31:13.058Z,17.60
2022-12-23T11:34:01.777Z,15.25
2022-12-23T11:36:30.261Z,14.90
2022-12-23T11:39:11.797Z,12.57
2022-12-23T11:41:48.544Z,12.90
2022-12-23T11:44:28.443Z,13.85
2022-12-23T11:46:55.045Z,12.48
2022-12-23T11:49:31.428Z,13.20
2022-12-23T11:52:02.778Z,12.23
2022-12-23T11:54:29.723Z,12.05
2022-12-23T11:56:56.881Z,12.68
2022-12-23T11:59:42.106Z,11.95
2022-12-23T12:02:20.429Z,14.23
2022-12-23T12:04:58.949Z,12.93
2022-12-23T12:07:26.613Z,14.45
2022-12-23T12:09:57.763Z,14.57
2022-12-23T12:12:24.384Z,18.30
2022-12-23T12:14:54.254Z,15.02
2022-12-23T12:17:33.205Z,16.63
2022-12-23T12:20:24.140Z,16.02
2022-12-23T12:23:05.163Z,16.75
2022-12-23T12:25:48.783Z,16.33
2022-12-23T12:28:41.057Z,21.80
2022-12-23T12:31:25.871Z,19.05
2022-12-23T12:34:24.053Z,19.50
2022-12-23T12:36:59.989Z,18.77
2022-12-23T12:39:38.055Z,19.02
2022-12-23T12:42:14.847Z,14.32
2022-12-23T12:44:47.982Z,14.98
2022-12-23T12:47:52.262Z,15.45
2022-12-23T12:50:23.479Z,17.23
2022-12-23T12:55:29.669Z,15.80
2022-12-23T12:57:56.183Z,15.98
2022-12-23T13:00:24.335Z,18.00
2022-12-23T13:03:15.215Z,16.02
2022-12-23T13:05:55.756Z,17.42
2022-12-23T13:08:40.257Z,15.98
2022-12-23T13:11:44.854Z,15.95
2022-12-23T13:14:22.457Z,15.20
2022-12-23T13:17:32.443Z,17.20
2022-12-23T13:20:24.113Z,15.57
2022-12-23T13:22:55.702Z,17.52
2022-12-23T13:25:29.493Z,16.48
2022-12-23T13:27:58.430Z,17.92
2022-12-23T13:30:32.137Z,15.30
2022-12-23T13:33:22.707Z,13.02
2022-12-23T13:36:11.492Z,14.10
2022-12-23T13:38:51.171Z,15.00
2022-12-23T13:41:40.085Z,13.05
2022-12-23T13:44:12.182Z,13.10
2022-12-23T13:46:46.916Z,16.40
2022-12-23T13:49:32.339Z,14.55
2022-12-23T13:52:19.947Z,13.85
2022-12-23T13:55:21.493Z,13.40
2022-12-23T13:58:01.490Z,13.40
2022-12-23T14:00:31.227Z,13.82
2022-12-23T14:02:57.608Z,11.95
2022-12-23T14:05:33.015Z,12.60
2022-12-23T14:08:02.179Z,13.65
2022-12-23T14:10:30.018Z,12.52
2022-12-23T14:13:05.929Z,13.18
2022-12-23T14:15:47.947Z,10.48
2022-12-23T14:21:05.709Z,11.00
2022-12-23T14:23:39.721Z,11.80
2022-12-23T14:26:41.532Z,11.55
2022-12-23T14:29:27.767Z,12.95
2022-12-23T14:31:57.200Z,16.88
2022-12-23T14:34:26.345Z,12.85
2022-12-23T14:37:24.300Z,15.02
2022-12-23T14:39:51.521Z,15.32
2022-12-23T14:42:33.140Z,14.38
2022-12-23T14:45:33.582Z,14.75
2022-12-23T14:48:01.403Z,14.13
2022-12-23T14:50:34.797Z,14.60
2022-12-23T14:53:21.771Z,14.52
2022-12-23T14:55:49.944Z,14.27
2022-12-23T14:58:16.251Z,13.07
2022-12-23T15:01:16.971Z,13.18
2022-12-23T15:03:47.482Z,12.20
2022-12-23T15:06:21.417Z,11.77
2022-12-23T15:08:52.595Z,14.45
2022-12-23T15:11:26.931Z,13.27
2022-12-23T15:13:54.985Z,10.82
2022-12-23T15:16:30.738Z,11.95
2022-12-23T15:19:02.825Z,11.43
2022-12-23T15:21:36.287Z,11.98
2022-12-23T15:24:02.881Z,10.77
2022-12-23T15:26:32.554Z,13.25
2022-12-23T15:29:00.527Z,13.43
2022-12-23T15:31:31.416Z,13.18
2022-12-23T15:34:10.251Z,12.75
2022-12-23T15:36:43.897Z,12.68
2022-12-23T15:39:19.279Z,12.38
2022-12-23T15:41:47.222Z,14.10
2022-12-23T15:44:20.267Z,14.13
2022-12-23T15:46:50.801Z,20.13
2022-12-23T15:49:19.300Z,13.90
2022-12-23T15:52:07.955Z,14.23
2022-12-23T15:54:46.417Z,13.68
2022-12-23T15:57:18.062Z,13.48
2022-12-23T15:59:44.968Z,11.90
2022-12-23T16:05:07.978Z,14.05
2022-12-23T16:07:38.113Z,14.13
2022-12-23T16:10:25.048Z,15.93
2022-12-23T16:12:54.202Z,15.95
2022-12-23T16:15:25.722Z,14.85
2022-12-23T16:17:52.167Z,15.75
2022-12-23T16:20:23.758Z,13.15
2022-12-23T16:22:54.175Z,13.27
2022-12-23T16:25:50.156Z,15.95
2022-12-23T16:28:24.503Z,17.10
2022-12-23T16:30:57.464Z,15.00
2022-12-23T16:33:34.058Z,14.20
2022-12-23T16:36:18.793Z,13.70
2022-12-23T16:38:46.198Z,18.35
2022-12-23T16:41:12.953Z,17.58
2022-12-23T16:43:39.466Z,15.63
2022-12-23T16:46:08.276Z,13.95
2022-12-23T16:48:36.591Z,12.43
2022-12-23T16:51:09.418Z,12.10
2022-12-23T16:53:35.764Z,13.73
2022-12-23T16:56:02.772Z,13.93
2022-12-23T16:58:29.828Z,12.40
2022-12-23T17:01:03.273Z,13.15
2022-12-23T17:03:29.768Z,11.88
2022-12-23T17:05:57.670Z,15.60
2022-12-23T17:08:24.268Z,13.60
2022-12-23T17:10:51.240Z,13.27
2022-12-23T17:13:21.017Z,14.35
2022-12-23T17:15:47.605Z,14.48
2022-12-23T17:18:17.904Z,14.70
2022-12-23T17:20:46.157Z,15.02
2022-12-23T17:23:42.088Z,15.00
2022-12-23T17:26:08.626Z,13.02
2022-12-23T17:28:35.094Z,16.35
2022-12-23T17:31:01.685Z,14.68
2022-12-23T17:33:31.177Z,14.45
2022-12-23T17:35:58.697Z,13.20
2022-12-23T17:38:25.636Z,12.80
2022-12-23T17:40:52.259Z,12.30
2022-12-23T17:43:19.110Z,14.63
2022-12-23T17:45:45.791Z,13.48
2022-12-23T17:48:20.214Z,13.25
2022-12-23T17:50:48.860Z,13.68
2022-12-23T17:53:19.597Z,14.73
2022-12-23T17:55:46.538Z,15.13
2022-12-23T17:58:14.218Z,14.00
2022-12-23T18:00:41.454Z,13.57
2022-12-23T18:03:20.846Z,12.18
2022-12-23T18:05:47.493Z,13.02
2022-12-23T18:08:13.931Z,12.77
2022-12-23T18:10:41.022Z,13.48
2022-12-23T18:13:14.373Z,12.38
2022-12-23T18:15:43.236Z,12.35
2022-12-23T18:18:26.396Z,11.15
2022-12-23T18:20:59.985Z,10.38
2022-12-23T18:23:37.221Z,8.35
2022-12-23T18:26:03.831Z,10.73
2022-12-23T18:28:30.301Z,7.72
2022-12-23T18:30:57.017Z,6.93
2022-12-23T18:33:28.487Z,7.30
2022-12-23T18:35:55.001Z,5.38
2022-12-23T18:38:21.356Z,4.75
2022-12-23T18:40:52.084Z,4.78
2022-12-23T18:43:30.735Z,3.80
2022-12-23T18:45:57.237Z,3.53
2022-12-23T18:48:23.658Z,4.43
2022-12-23T18:50:52.070Z,3.47
2022-12-23T18:53:24.581Z,4.70
2022-12-23T18:55:52.920Z,3.97
2022-12-23T18:58:19.468Z,3.63
2022-12-23T19:00:46.990Z,3.30
2022-12-23T19:03:33.979Z,4.25
2022-12-23T19:06:06.508Z,5.18
2022-12-23T19:08:34.385Z,4.75
2022-12-23T19:11:01.494Z,5.07
2022-12-23T19:13:34.169Z,5.47
2022-12-23T19:16:03.904Z,5.47
2022-12-23T19:18:33.474Z,6.05
2022-12-23T19:21:04.331Z,7.53
2022-12-23T19:23:30.827Z,7.55
2022-12-23T19:28:42.695Z,7.07
2022-12-23T19:31:13.707Z,7.60
2022-12-23T19:33:48.425Z,8.05
2022-12-23T19:36:22.900Z,8.35
2022-12-23T19:38:50.019Z,8.32
2022-12-23T19:41:17.909Z,8.52
2022-12-23T19:43:46.437Z,9.00
2022-12-23T19:46:15.292Z,8.45
2022-12-23T19:48:43.206Z,8.38
2022-12-23T19:51:13.924Z,10.27
2022-12-23T19:53:41.548Z,9.18
2022-12-23T19:56:11.897Z,8.77
2022-12-23T19:58:41.387Z,9.05
2022-12-23T20:01:20.166Z,9.15
2022-12-23T20:03:51.587Z,9.05
2022-12-23T20:06:39.264Z,8.18
2022-12-23T20:09:15.979Z,8.32
2022-12-23T20:11:46.067Z,9.68
2022-12-23T20:14:21.911Z,7.28
2022-12-23T20:16:49.307Z,9.15
2022-12-23T20:19:16.850Z,6.70
2022-12-23T20:21:45.917Z,7.07
2022-12-23T20:24:13.788Z,7.20
2022-12-23T20:26:44.087Z,7.20
2022-12-23T20:29:10.654Z,6.47
2022-12-23T20:31:40.191Z,6.70
2022-12-23T20:34:08.745Z,6.72
2022-12-23T20:36:36.688Z,6.63
2022-12-23T20:39:04.718Z,6.93
2022-12-23T20:41:33.205Z,7.20
2022-12-23T20:44:33.172Z,6.75
2022-12-23T20:46:49.272Z,4.28
2022-12-23T20:49:15.706Z,7.20
2022-12-23T20:51:42.462Z,4.85
2022-12-23T20:54:09.473Z,5.38
2022-12-23T20:56:36.228Z,5.10
2022-12-23T20:59:03.996Z,4.97
2022-12-23T21:01:35.344Z,4.90
2022-12-23T21:04:05.277Z,3.28
2022-12-23T21:06:32.859Z,5.32
2022-12-23T21:09:05.121Z,4.43
2022-12-23T21:11:34.152Z,4.50
2022-12-23T21:14:06.098Z,3.92
2022-12-23T21:16:45.512Z,4.20
2022-12-23T21:19:24.744Z,4.53
2022-12-23T21:21:56.714Z,3.88
2022-12-23T21:24:23.399Z,4.53
2022-12-23T21:26:56.039Z,3.83
2022-12-23T21:29:22.787Z,4.60
2022-12-23T21:31:49.413Z,4.80
2022-12-23T21:34:15.798Z,4.55
2022-12-23T21:36:42.693Z,5.18
2022-12-23T21:39:14.872Z,3.85
2022-12-23T21:44:11.553Z,3.15
2022-12-23T21:46:40.631Z,4.93
2022-12-23T21:49:13.018Z,4.10
2022-12-23T21:51:41.287Z,3.50
2022-12-23T21:54:15.242Z,4.90
2022-12-23T21:56:42.115Z,3.92
2022-12-23T21:59:13.574Z,5.40
2022-12-23T22:01:43.950Z,4.10
2022-12-23T22:04:18.312Z,4.55
2022-12-23T22:06:46.772Z,4.07
2022-12-23T22:09:16.131Z,3.30
2022-12-23T22:11:42.756Z,4.70
2022-12-23T22:14:12.046Z,4.20
2022-12-23T22:16:40.699Z,6.40
2022-12-23T22:19:08.735Z,6.43
2022-12-23T22:21:39.537Z,4.65
2022-12-23T22:26:36.741Z,4.38
2022-12-23T22:29:06.272Z,3.88
2022-12-23T22:31:44.836Z,4.63
2022-12-23T22:34:14.505Z,5.93
2022-12-23T22:36:40.941Z,6.30
2022-12-23T22:39:08.254Z,5.78
2022-12-23T22:41:56.631Z,6.05
2022-12-23T22:44:25.041Z,5.63
2022-12-23T22:46:52.542Z,4.47
2022-12-23T22:49:19.179Z,4.60
2022-12-23T22:51:46.078Z,5.07
2022-12-23T22:54:12.548Z,4.45
2022-12-23T22:56:40.124Z,4.75
2022-12-23T22:59:06.772Z,4.57
2022-12-23T23:01:40.599Z,5.93
2022-12-23T23:04:07.874Z,4.07
2022-12-23T23:06:41.656Z,5.75
2022-12-23T23:09:15.345Z,5.45
2022-12-23T23:11:44.263Z,5.50
2022-12-23T23:14:11.905Z,5.93
2022-12-23T23:16:45.096Z,3.85
2022-12-23T23:19:12.387Z,4.38
2022-12-23T23:21:39.120Z,5.05
2022-12-23T23:24:06.099Z,5.53
2022-12-23T23:26:32.631Z,4.63
2022-12-23T23:29:00.127Z,4.32
2022-12-23T23:31:43.688Z,6.22
2022-12-23T23:34:12.225Z,4.80
2022-12-23T23:36:38.920Z,5.75
2022-12-23T23:39:05.310Z,4.68
2022-12-23T23:41:31.830Z,5.90
2022-12-23T23:43:58.405Z,5.40
2022-12-23T23:46:24.921Z,5.95
2022-12-23T23:48:51.517Z,4.63
2022-12-23T23:51:19.602Z,4.63
2022-12-23T23:53:47.309Z,5.45
2022-12-23T23:56:15.792Z,5.68
2022-12-23T23:58:44.714Z,6.00
